| time (UTC) | temp C | wind direction | speed KPH | gust KPH | rain 1hr cm | rain 24hr cm | rain mn cm | humidity % | barometer mb |
| 20260905221507 | 14 | 276 | 22.5 | 33.8 | 0.00 | 0.41 | 0.00 | 82 | 1012.8 |
| 20260905220005 | 14 | 275 | 19.3 | 46.7 | 0.00 | 0.41 | 0.00 | 82 | 1012.6 |
| 20260905214502 | 14 | 284 | 20.9 | 37.0 | 0.00 | 0.41 | 0.41 | 82 | 1012.5 |
| 20260905213105 | 15 | 284 | 22.5 | 45.1 | 0.00 | 0.41 | 0.41 | 82 | 1012.4 |
| 20260905211610 | 15 | 299 | 19.3 | 45.1 | 0.00 | 0.41 | 0.41 | 82 | 1012.2 |
| 20260905211504 | 15 | 279 | 19.3 | 45.1 | 0.00 | 0.41 | 0.41 | 82 | 1012.1 |
| 20260905210105 | 15 | 261 | 17.7 | 45.1 | 0.00 | 0.41 | 0.41 | 82 | 1012.0 |
| 20260905204603 | 15 | 254 | 24.1 | 38.6 | 0.00 | 0.41 | 0.41 | 83 | 1011.8 |
| 20260905203101 | 15 | 288 | 19.3 | 37.0 | 0.00 | 0.41 | 0.41 | 84 | 1011.5 |
| 20260905201557 | 15 | 267 | 20.9 | 37.0 | 0.00 | 0.41 | 0.41 | 84 | 1011.4 |
| 20260905200110 | 15 | 277 | 16.1 | 45.1 | 0.00 | 0.41 | 0.41 | 83 | 1011.3 |
| 20260905194551 | 15 | 302 | 24.1 | 41.8 | 0.00 | 0.41 | 0.41 | 83 | 1011.3 |
| 20260905193052 | 15 | 279 | 20.9 | 38.6 | 0.00 | 0.41 | 0.41 | 81 | 1011.2 |
| 20260905191549 | 15 | 286 | 14.5 | 30.6 | 0.00 | 0.41 | 0.41 | 80 | 1011.2 |
| 20260905190047 | 15 | 274 | 19.3 | 40.2 | 0.00 | 0.41 | 0.41 | 80 | 1011.0 |
| 20260905184545 | 15 | 286 | 19.3 | 38.6 | 0.00 | 0.41 | 0.41 | 80 | 1010.9 |
| 20260905183045 | 15 | 287 | 19.3 | 38.6 | 0.00 | 0.41 | 0.41 | 80 | 1010.7 |
| 20260905181541 | 16 | 242 | 22.5 | 41.8 | 0.00 | 0.41 | 0.41 | 79 | 1010.4 |
| 20260905180040 | 16 | 252 | 22.5 | 40.2 | 0.00 | 0.41 | 0.41 | 79 | 1010.1 |
| 20260905174538 | 16 | 258 | 20.9 | 37.0 | 0.00 | 0.41 | 0.41 | 80 | 1010.0 |
| 20260905173054 | 16 | 277 | 20.9 | 41.8 | 0.00 | 0.41 | 0.41 | 78 | 1010.0 |
| 20260905171538 | 16 | 285 | 16.1 | 35.4 | 0.00 | 0.41 | 0.41 | 78 | 1009.7 |
| 20260905170034 | 16 | 281 | 20.9 | 40.2 | 0.00 | 0.41 | 0.41 | 76 | 1009.7 |
| 20260905164532 | 16 | 273 | 22.5 | 33.8 | 0.00 | 0.69 | 0.41 | 75 | 1009.5 |
| 20260905163031 | 17 | 259 | 17.7 | 45.1 | 0.00 | 0.69 | 0.41 | 74 | 1009.2 |
| 20260905161531 | 17 | 281 | 25.7 | 48.3 | 0.00 | 0.69 | 0.41 | 71 | 1009.0 |
| 20260905160033 | 18 | 300 | 22.5 | 48.3 | 0.00 | 0.69 | 0.41 | 69 | 1008.8 |
| 20260905154526 | 18 | 300 | 27.4 | 53.1 | 0.00 | 0.71 | 0.41 | 68 | 1008.6 |
| 20260905153024 | 18 | 281 | 27.4 | 53.1 | 0.00 | 0.71 | 0.41 | 68 | 1008.4 |
| 20260905151522 | 18 | 266 | 22.5 | 49.9 | 0.00 | 0.71 | 0.41 | 72 | 1008.2 |
| 20260905150022 | 18 | 278 | 27.4 | 48.3 | 0.00 | 0.71 | 0.41 | 71 | 1008.0 |
| 20260905144520 | 18 | 290 | 25.7 | 48.3 | 0.00 | 0.71 | 0.41 | 71 | 1008.0 |
| 20260905143022 | 17 | 287 | 16.1 | 40.2 | 0.00 | 0.71 | 0.41 | 73 | 1007.8 |
| 20260905141526 | 18 | 291 | 22.5 | 48.3 | 0.00 | 0.71 | 0.41 | 71 | 1007.9 |
| 20260905140015 | 18 | 292 | 24.1 | 41.8 | 0.00 | 0.71 | 0.41 | 72 | 1007.6 |
| 20260905134515 | 18 | 278 | 19.3 | 43.5 | 0.00 | 0.81 | 0.41 | 72 | 1007.6 |
| 20260905133014 | 17 | 250 | 29.0 | 49.9 | 0.00 | 0.81 | 0.41 | 73 | 1007.6 |
| 20260905131516 | 18 | 297 | 29.0 | 48.3 | 0.00 | 0.81 | 0.41 | 71 | 1007.3 |
| 20260905130011 | 17 | 290 | 25.7 | 41.8 | 0.00 | 0.81 | 0.41 | 72 | 1007.1 |
| 20260905124511 | 17 | 310 | 14.5 | 35.4 | 0.00 | 0.84 | 0.41 | 78 | 1007.0 |
| 20260905123007 | 17 | 270 | 19.3 | 32.2 | 0.00 | 0.84 | 0.41 | 81 | 1006.8 |
| 20260905121505 | 16 | 277 | 12.9 | 33.8 | 0.00 | 0.84 | 0.41 | 85 | 1006.6 |
| 20260905120007 | 16 | 188 | 9.7 | 32.2 | 0.05 | 0.84 | 0.41 | 83 | 1006.6 |
| 20260905114506 | 16 | 285 | 8.0 | 19.3 | 0.15 | 1.09 | 0.41 | 85 | 1006.5 |
| 20260905113003 | 15 | 215 | 8.0 | 22.5 | 0.15 | 1.09 | 0.41 | 89 | 1006.6 |
| 20260905111502 | 13 | 272 | 22.5 | 35.4 | 0.15 | 1.07 | 0.38 | 90 | 1006.8 |
| 20260905110111 | 15 | 291 | 17.7 | 33.8 | 0.25 | 1.02 | 0.33 | 90 | 1006.6 |
| 20260905104559 | 15 | 289 | 20.9 | 30.6 | 0.23 | 1.09 | 0.25 | 88 | 1006.4 |
| 20260905103058 | 15 | 298 | 19.3 | 29.0 | 0.23 | 1.09 | 0.25 | 91 | 1006.4 |
| 20260905101607 | 14 | 293 | 19.3 | 37.0 | 0.23 | 1.07 | 0.23 | 88 | 1006.3 |
| 20260905100053 | 17 | 204 | 20.9 | 35.4 | 0.05 | 0.89 | 0.08 | 81 | 1005.5 |
| 20260905094551 | 18 | 229 | 16.1 | 37.0 | 0.00 | 0.91 | 0.03 | 79 | 1005.2 |
| 20260905093049 | 18 | 225 | 19.3 | 41.8 | 0.00 | 0.91 | 0.03 | 80 | 1005.1 |
| 20260905091600 | 18 | 219 | 19.3 | 37.0 | 0.00 | 0.91 | 0.03 | 78 | 1005.2 |
| 20260905090046 | 18 | 195 | 16.1 | 35.4 | 0.00 | 0.91 | 0.03 | 79 | 1005.2 |
| 20260905084543 | 17 | 261 | 19.3 | 33.8 | 0.00 | 0.99 | 0.03 | 79 | 1005.1 |
| 20260905083041 | 17 | 276 | 14.5 | 40.2 | 0.00 | 0.99 | 0.03 | 82 | 1005.0 |
| 20260905081539 | 17 | 202 | 14.5 | 32.2 | 0.00 | 0.99 | 0.03 | 85 | 1005.0 |
| 20260905080037 | 17 | 256 | 12.9 | 30.6 | 0.00 | 0.99 | 0.03 | 86 | 1004.9 |
| 20260905074536 | 17 | 201 | 12.9 | 27.4 | 0.00 | 1.17 | 0.03 | 86 | 1004.9 |
| 20260905073033 | 16 | 213 | 14.5 | 30.6 | 0.00 | 1.17 | 0.03 | 84 | 1004.8 |
| 20260905071530 | 17 | 216 | 11.3 | 24.1 | 0.00 | 1.17 | 0.03 | 82 | 1004.6 |
| 20260905070029 | 17 | 225 | 11.3 | 32.2 | 0.00 | 1.17 | 0.03 | 83 | 1004.5 |
| 20260905064527 | 16 | 284 | 11.3 | 30.6 | 0.00 | 1.24 | 0.03 | 84 | 1004.5 |
| 20260905063025 | 16 | 248 | 9.7 | 27.4 | 0.00 | 1.24 | 0.03 | 85 | 1004.5 |
| 20260905061524 | 16 | 276 | 11.3 | 29.0 | 0.00 | 1.24 | 0.03 | 85 | 1004.4 |
| 20260905060020 | 16 | 283 | 9.7 | 22.5 | 0.00 | 1.24 | 0.03 | 86 | 1004.3 |
| 20260905054523 | 15 | 224 | 9.7 | 24.1 | 0.00 | 1.27 | 0.03 | 86 | 1004.4 |
| 20260905053016 | 15 | 238 | 9.7 | 25.7 | 0.00 | 1.27 | 0.03 | 86 | 1004.2 |
| 20260905051514 | 15 | 288 | 8.0 | 19.3 | 0.00 | 1.27 | 0.03 | 86 | 1004.1 |
| 20260905050010 | 15 | 255 | 6.4 | 20.9 | 0.00 | 1.27 | 0.03 | 86 | 1004.0 |
| 20260905044510 | 15 | 234 | 11.3 | 25.7 | 0.00 | 1.27 | 0.03 | 87 | 1003.8 |
| 20260905043004 | 15 | 206 | 8.0 | 19.3 | 0.00 | 1.27 | 0.03 | 87 | 1003.7 |
| 20260905041506 | 15 | 258 | 9.7 | 27.4 | 0.00 | 1.27 | 0.03 | 87 | 1003.6 |
| 20260905040100 | 15 | 218 | 11.3 | 25.7 | 0.00 | 1.27 | 0.03 | 88 | 1003.4 |
| 20260905034558 | 15 | 251 | 8.0 | 20.9 | 0.00 | 1.27 | 0.03 | 88 | 1003.3 |
| 20260905033057 | 15 | 225 | 11.3 | 20.9 | 0.00 | 1.27 | 0.03 | 88 | 1003.3 |
| 20260905031604 | 14 | 202 | 8.0 | 16.1 | 0.00 | 1.27 | 0.03 | 88 | 1003.2 |
| 20260905030100 | 14 | 290 | 6.4 | 16.1 | 0.00 | 1.27 | 0.03 | 88 | 1003.2 |
| 20260905024559 | 14 | 289 | 9.7 | 16.1 | 0.00 | 1.27 | 0.03 | 88 | 1002.9 |
| 20260905023050 | 14 | 250 | 6.4 | 14.5 | 0.00 | 1.27 | 0.03 | 89 | 1002.9 |
| 20260905021549 | 14 | 234 | 4.8 | 12.9 | 0.00 | 1.27 | 0.03 | 89 | 1002.8 |
| 20260905020045 | 15 | 267 | 6.4 | 12.9 | 0.00 | 1.27 | 0.03 | 88 | 1002.6 |
| 20260905014543 | 15 | 281 | 12.9 | 24.1 | 0.03 | 1.27 | 0.03 | 88 | 1002.4 |
| 20260905013040 | 15 | 263 | 14.5 | 24.1 | 0.03 | 1.27 | 0.03 | 88 | 1002.2 |
| 20260905011537 | 15 | 277 | 14.5 | 27.4 | 0.03 | 1.27 | 0.03 | 87 | 1002.0 |
| 20260905010042 | 15 | 259 | 17.7 | 30.6 | 0.03 | 1.27 | 0.03 | 87 | 1001.7 |
| 20260905004533 | 15 | 281 | 12.9 | 35.4 | 0.00 | 1.24 | 0.00 | 86 | 1001.7 |
| 20260905003031 | 15 | 290 | 12.9 | 35.4 | 0.00 | 1.24 | 0.00 | 86 | 1001.5 |
| 20260905001527 | 15 | 271 | 16.1 | 30.6 | 0.00 | 1.24 | 0.00 | 87 | 1001.2 |
| 20260905000026 | 15 | 286 | 12.9 | 24.1 | 0.00 | 1.24 | 0.00 | 87 | 1001.1 |
| 20260904234523 | 15 | 242 | 9.7 | 25.7 | 0.00 | 1.24 | 0.00 | 87 | 1001.2 |
| 20260904233022 | 15 | 248 | 8.0 | 20.9 | 0.00 | 1.24 | 0.00 | 87 | 1001.2 |
| 20260904231520 | 15 | 252 | 9.7 | 32.2 | 0.00 | 1.24 | 0.00 | 87 | 1001.3 |
| 20260904230035 | 15 | 235 | 11.3 | 25.7 | 0.00 | 1.24 | 0.00 | 87 | 1001.1 |
| 20260904224522 | 15 | 226 | 11.3 | 29.0 | 0.00 | 1.24 | 0.00 | 87 | 1001.1 |
| 20260904223010 | 15 | 294 | 9.7 | 19.3 | 0.00 | 1.24 | 0.00 | 88 | 1001.1 |